VH314 YSTW-YSBK
Flight info
| Callsign | VH314 |
|---|---|
| Flight time | 0h 49m |
| Altitude | 5000 |
| Route | TW W183 LALIB V531 ISREV Q155 RIC V11 BK |
| Aircraft | PTS1/L-PTS1/C |
Departure
| Time | 2026-05-08 00:04 |
|---|---|
| Airport | Tamworth Airport (YSTW) |
Arrival
| Time | 2026-05-08 00:54 |
|---|---|
| Airport | Sydney Bankstown Airport (YSBK) |
| Time | Latitude | Longitude | Altitude | Speed | Heading |
|---|---|---|---|---|---|
| 2026-05-08 00:02 | -31.08450 | 150.85336 | 1329 ft | 0 kts | 145° |
| 2026-05-08 00:03 | -31.08452 | 150.85344 | 1329 ft | 8 kts | 79° |
| 2026-05-08 00:03 | -31.08410 | 150.85344 | 1328 ft | 0 kts | 313° |
| 2026-05-08 00:03 | -31.08388 | 150.85316 | 1327 ft | 9 kts | 309° |
| 2026-05-08 00:03 | -31.08257 | 150.85149 | 1322 ft | 60 kts | 311° |
| 2026-05-08 00:04 | -31.07950 | 150.84767 | 1634 ft | 55 kts | 312° |
| 2026-05-08 00:04 | -31.07656 | 150.84372 | 1835 ft | 74 kts | 314° |
| 2026-05-08 00:04 | -31.07264 | 150.83845 | 2252 ft | 96 kts | 313° |
| 2026-05-08 00:04 | -31.06708 | 150.83295 | 2561 ft | 110 kts | 323° |
| 2026-05-08 00:05 | -31.06072 | 150.82806 | 2955 ft | 106 kts | 322° |
| 2026-05-08 00:05 | -31.05540 | 150.82194 | 3303 ft | 114 kts | 308° |
| 2026-05-08 00:05 | -31.05547 | 150.81374 | 3079 ft | 127 kts | 215° |
| 2026-05-08 00:05 | -31.06393 | 150.81425 | 2991 ft | 131 kts | 159° |
| 2026-05-08 00:06 | -31.07133 | 150.82023 | 2877 ft | 135 kts | 133° |
| 2026-05-08 00:06 | -31.07758 | 150.82813 | 2785 ft | 130 kts | 129° |
| 2026-05-08 00:06 | -31.08231 | 150.83699 | 2827 ft | 128 kts | 121° |
| 2026-05-08 00:06 | -31.08722 | 150.84563 | 2881 ft | 126 kts | 129° |
| 2026-05-08 00:07 | -31.09235 | 150.85396 | 2910 ft | 128 kts | 123° |
| 2026-05-08 00:07 | -31.09771 | 150.86247 | 2817 ft | 133 kts | 129° |
| 2026-05-08 00:07 | -31.10384 | 150.87041 | 2839 ft | 128 kts | 130° |
| 2026-05-08 00:07 | -31.10818 | 150.87912 | 2823 ft | 124 kts | 121° |
| 2026-05-08 00:08 | -31.11127 | 150.88843 | 2620 ft | 118 kts | 67° |
| 2026-05-08 00:08 | -31.10627 | 150.88901 | 2279 ft | 104 kts | 291° |
| 2026-05-08 00:08 | -31.10329 | 150.88119 | 1967 ft | 112 kts | 294° |
| 2026-05-08 00:08 | -31.09918 | 150.87338 | 1787 ft | 111 kts | 304° |
| 2026-05-08 00:09 | -31.09445 | 150.86636 | 1649 ft | 109 kts | 309° |
| 2026-05-08 00:09 | -31.08944 | 150.85995 | 1508 ft | 109 kts | 309° |
| 2026-05-08 00:09 | -31.08430 | 150.85353 | 1358 ft | 104 kts | 311° |
| 2026-05-08 00:09 | -31.08005 | 150.84822 | 1311 ft | 78 kts | 311° |
| 2026-05-08 00:10 | -31.07673 | 150.84402 | 1303 ft | 63 kts | 311° |
| 2026-05-08 00:10 | -31.07393 | 150.84068 | 1294 ft | 49 kts | 310° |
| 2026-05-08 00:10 | -31.07210 | 150.83817 | 1289 ft | 26 kts | 313° |
| 2026-05-08 00:10 | -31.07166 | 150.83761 | 1288 ft | 10 kts | 313° |
| 2026-05-08 00:11 | -31.07111 | 150.83732 | 1287 ft | 12 kts | 90° |
| 2026-05-08 00:11 | -31.07182 | 150.83813 | 1289 ft | 16 kts | 138° |
| 2026-05-08 00:11 | -31.07293 | 150.83956 | 1291 ft | 39 kts | 145° |
| 2026-05-08 00:11 | -31.07411 | 150.84009 | 1291 ft | 14 kts | 148° |
| 2026-05-08 00:12 | -31.07482 | 150.84088 | 1293 ft | 14 kts | 134° |
| 2026-05-08 00:12 | -31.07553 | 150.84170 | 1294 ft | 14 kts | 137° |
| 2026-05-08 00:12 | -31.07627 | 150.84211 | 1296 ft | 11 kts | 195° |
| 2026-05-08 00:12 | -31.07701 | 150.84179 | 1298 ft | 11 kts | 182° |
| 2026-05-08 00:13 | -31.07774 | 150.84233 | 1300 ft | 18 kts | 134° |
| 2026-05-08 00:13 | -31.07880 | 150.84368 | 1303 ft | 25 kts | 133° |
| 2026-05-08 00:13 | -31.07995 | 150.84514 | 1307 ft | 24 kts | 133° |
| 2026-05-08 00:13 | -31.08100 | 150.84650 | 1311 ft | 22 kts | 134° |
| 2026-05-08 00:14 | -31.08166 | 150.84731 | 1315 ft | 19 kts | 131° |
| 2026-05-08 00:14 | -31.08358 | 150.84968 | 1317 ft | 17 kts | 126° |
| 2026-05-08 00:14 | -31.08431 | 150.85070 | 1321 ft | 16 kts | 135° |
| 2026-05-08 00:15 | -31.08504 | 150.85158 | 1324 ft | 14 kts | 121° |
| 2026-05-08 00:15 | -31.08514 | 150.85264 | 1328 ft | 13 kts | 64° |
| 2026-05-08 00:15 | -31.08501 | 150.85288 | 1328 ft | 0 kts | 46° |
| 2026-05-08 00:16 | -31.08485 | 150.85306 | 1329 ft | 18 kts | 40° |
| 2026-05-08 00:16 | -31.08442 | 150.85338 | 1329 ft | 1 kts | 22° |
| 2026-05-08 00:16 | -31.08365 | 150.85287 | 1325 ft | 23 kts | 320° |
| 2026-05-08 00:16 | -31.08311 | 150.85229 | 1322 ft | 41 kts | 314° |
| 2026-05-08 00:17 | -31.07739 | 150.84650 | 1694 ft | 94 kts | 327° |
| 2026-05-08 00:17 | -31.07130 | 150.84327 | 2225 ft | 98 kts | 320° |
| 2026-05-08 00:17 | -31.07231 | 150.83594 | 2621 ft | 112 kts | 209° |
| 2026-05-08 00:17 | -31.08049 | 150.83286 | 2736 ft | 133 kts | 197° |
| 2026-05-08 00:18 | -31.08903 | 150.83054 | 3147 ft | 122 kts | 198° |
| 2026-05-08 00:18 | -31.09741 | 150.82836 | 3432 ft | 126 kts | 190° |
| 2026-05-08 00:18 | -31.10612 | 150.82842 | 3708 ft | 125 kts | 172° |
| 2026-05-08 00:18 | -31.11452 | 150.83157 | 3854 ft | 130 kts | 169° |
| 2026-05-08 00:19 | -31.12346 | 150.83286 | 3959 ft | 126 kts | 177° |
| 2026-05-08 00:19 | -31.13167 | 150.83434 | 4090 ft | 117 kts | 176° |
| 2026-05-08 00:19 | -31.14003 | 150.83523 | 3994 ft | 121 kts | 179° |
| 2026-05-08 00:19 | -31.14849 | 150.83569 | 3933 ft | 125 kts | 181° |
| 2026-05-08 00:20 | -31.15725 | 150.83612 | 3761 ft | 124 kts | 184° |
| 2026-05-08 00:20 | -31.16594 | 150.83526 | 3671 ft | 127 kts | 184° |
| 2026-05-08 00:20 | -31.17474 | 150.83479 | 3597 ft | 128 kts | 184° |
| 2026-05-08 00:20 | -31.18365 | 150.83481 | 3527 ft | 131 kts | 177° |
| 2026-05-08 00:21 | -31.19249 | 150.83633 | 3551 ft | 125 kts | 178° |
| 2026-05-08 00:21 | -31.20119 | 150.83659 | 3422 ft | 131 kts | 183° |
| 2026-05-08 00:21 | -31.21039 | 150.83641 | 3236 ft | 132 kts | 181° |
| 2026-05-08 00:21 | -31.21951 | 150.83795 | 3155 ft | 131 kts | 175° |
| 2026-05-08 00:22 | -31.22838 | 150.83771 | 3120 ft | 127 kts | 188° |
| 2026-05-08 00:22 | -31.23718 | 150.83589 | 3054 ft | 131 kts | 192° |
| 2026-05-08 00:22 | -31.24625 | 150.83451 | 2946 ft | 131 kts | 192° |
| 2026-05-08 00:22 | -31.25544 | 150.83347 | 2820 ft | 132 kts | 184° |
| 2026-05-08 00:23 | -31.26438 | 150.83355 | 2900 ft | 124 kts | 174° |
| 2026-05-08 00:23 | -31.27293 | 150.83546 | 2966 ft | 126 kts | 169° |
| 2026-05-08 00:23 | -31.28166 | 150.83638 | 2973 ft | 128 kts | 182° |
| 2026-05-08 00:23 | -31.29054 | 150.83795 | 2974 ft | 130 kts | 170° |
| 2026-05-08 00:24 | -31.29938 | 150.83936 | 2995 ft | 128 kts | 176° |
| 2026-05-08 00:24 | -31.30830 | 150.84023 | 2961 ft | 129 kts | 176° |
| 2026-05-08 00:24 | -31.31716 | 150.84323 | 2799 ft | 138 kts | 150° |
| 2026-05-08 00:24 | -31.32557 | 150.84861 | 2635 ft | 139 kts | 162° |
| 2026-05-08 00:25 | -31.33476 | 150.85155 | 2555 ft | 135 kts | 167° |
| 2026-05-08 00:25 | -31.34355 | 150.85507 | 2519 ft | 132 kts | 160° |
| 2026-05-08 00:25 | -31.35221 | 150.85635 | 2711 ft | 116 kts | 174° |
| 2026-05-08 00:25 | -31.36050 | 150.85699 | 2935 ft | 121 kts | 178° |
| 2026-05-08 00:26 | -31.36901 | 150.85776 | 3190 ft | 123 kts | 181° |
| 2026-05-08 00:26 | -31.37745 | 150.85769 | 3452 ft | 119 kts | 183° |
| 2026-05-08 00:26 | -31.38565 | 150.85872 | 3685 ft | 117 kts | 178° |
| 2026-05-08 00:26 | -31.39378 | 150.85829 | 3863 ft | 118 kts | 190° |
| 2026-05-08 00:27 | -31.40171 | 150.85712 | 4100 ft | 111 kts | 192° |
| 2026-05-08 00:27 | -31.40915 | 150.85487 | 4228 ft | 111 kts | 201° |
| 2026-05-08 00:27 | -31.41629 | 150.85148 | 4259 ft | 115 kts | 203° |
| 2026-05-08 00:27 | -31.42353 | 150.84826 | 4459 ft | 108 kts | 197° |
| 2026-05-08 00:28 | -31.43062 | 150.84644 | 4727 ft | 102 kts | 193° |
| 2026-05-08 00:28 | -31.43762 | 150.84568 | 4950 ft | 100 kts | 187° |
| 2026-05-08 00:28 | -31.43952 | 150.84570 | 5002 ft | 0 kts | 185° |
| 2026-05-08 00:28 | -31.52097 | 150.83801 | 4995 ft | 5215 kts | 185° |
| 2026-05-08 00:29 | -31.70758 | 150.82037 | 7140 ft | 0 kts | 185° |
| 2026-05-08 00:29 | -31.96117 | 150.79634 | 10442 ft | 0 kts | 185° |
| 2026-05-08 00:29 | -32.49701 | 150.79040 | 10405 ft | 0 kts | 180° |
| 2026-05-08 00:29 | -32.50079 | 150.79077 | 10328 ft | 112 kts | 181° |
| 2026-05-08 00:30 | -32.50869 | 150.79210 | 10131 ft | 114 kts | 184° |
| 2026-05-08 00:30 | -32.51657 | 150.79552 | 9885 ft | 131 kts | 162° |
| 2026-05-08 00:30 | -32.52430 | 150.80171 | 9504 ft | 136 kts | 161° |
| 2026-05-08 00:30 | -32.53166 | 150.80859 | 9431 ft | 134 kts | 146° |
| 2026-05-08 00:31 | -32.53696 | 150.81789 | 9327 ft | 126 kts | 158° |
| 2026-05-08 00:31 | -32.54509 | 150.82169 | 8997 ft | 121 kts | 174° |
| 2026-05-08 00:31 | -32.55316 | 150.82358 | 8887 ft | 118 kts | 183° |
| 2026-05-08 00:31 | -32.56128 | 150.82497 | 8813 ft | 118 kts | 179° |
| 2026-05-08 00:32 | -32.56920 | 150.82801 | 8727 ft | 119 kts | 176° |
| 2026-05-08 00:32 | -32.57723 | 150.82745 | 8477 ft | 117 kts | 195° |
| 2026-05-08 00:32 | -32.58509 | 150.82683 | 8478 ft | 112 kts | 186° |
| 2026-05-08 00:32 | -32.59264 | 150.82685 | 8216 ft | 105 kts | 210° |
| 2026-05-08 00:33 | -32.59883 | 150.82414 | 7479 ft | 102 kts | 214° |
| 2026-05-08 00:33 | -32.60276 | 150.82239 | 7239 ft | 138 kts | 91° |
| 2026-05-08 00:33 | -32.59564 | 150.82805 | 7733 ft | 110 kts | 341° |
| 2026-05-08 00:33 | -32.59642 | 150.82406 | 7656 ft | 81 kts | 184° |
| 2026-05-08 00:34 | -32.60243 | 150.82370 | 7621 ft | 91 kts | 184° |
| 2026-05-08 00:34 | -32.60859 | 150.82384 | 8033 ft | 87 kts | 188° |
| 2026-05-08 00:34 | -32.60887 | 150.82494 | 8044 ft | 18 kts | 166° |
| 2026-05-08 00:34 | -32.61285 | 150.82125 | 7583 ft | 59 kts | 231° |
| 2026-05-08 00:35 | -32.61298 | 150.81585 | 7664 ft | 59 kts | 221° |
| 2026-05-08 00:35 | -32.61669 | 150.81547 | 7662 ft | 79 kts | 182° |
| 2026-05-08 00:35 | -32.62375 | 150.81771 | 7401 ft | 100 kts | 174° |
| 2026-05-08 00:35 | -32.62968 | 150.81962 | 7519 ft | 91 kts | 175° |
| 2026-05-08 00:36 | -32.63597 | 150.82200 | 7399 ft | 92 kts | 188° |
| 2026-05-08 00:36 | -32.74859 | 150.80835 | 7376 ft | 10286 kts | 177° |
| 2026-05-08 00:36 | -33.41166 | 150.80757 | 7352 ft | 0 kts | 177° |
| 2026-05-08 00:36 | -33.57441 | 150.81734 | 7358 ft | 92 kts | 181° |
| 2026-05-08 00:37 | -33.58050 | 150.81919 | 7364 ft | 91 kts | 166° |
| 2026-05-08 00:37 | -33.58696 | 150.82061 | 7046 ft | 97 kts | 182° |
| 2026-05-08 00:37 | -33.59332 | 150.82087 | 6975 ft | 87 kts | 182° |
| 2026-05-08 00:38 | -33.60573 | 150.82484 | 6579 ft | 95 kts | 177° |
| 2026-05-08 00:38 | -33.61235 | 150.82508 | 6226 ft | 103 kts | 182° |
| 2026-05-08 00:38 | -33.61945 | 150.82561 | 5741 ft | 103 kts | 182° |
| 2026-05-08 00:38 | -33.62686 | 150.82592 | 4962 ft | 107 kts | 181° |
| 2026-05-08 00:39 | -33.63408 | 150.82669 | 4311 ft | 101 kts | 182° |
| 2026-05-08 00:39 | -33.64101 | 150.82829 | 3699 ft | 105 kts | 176° |
| 2026-05-08 00:39 | -33.64802 | 150.83222 | 3036 ft | 117 kts | 160° |
| 2026-05-08 00:39 | -33.65479 | 150.83814 | 2406 ft | 124 kts | 150° |
| 2026-05-08 00:40 | -33.66125 | 150.84488 | 1972 ft | 116 kts | 149° |
| 2026-05-08 00:40 | -33.66816 | 150.84717 | 1555 ft | 105 kts | 182° |
| 2026-05-08 00:40 | -33.67545 | 150.84778 | 1345 ft | 104 kts | 181° |
| 2026-05-08 00:40 | -33.68310 | 150.84868 | 827 ft | 121 kts | 173° |
| 2026-05-08 00:41 | -33.69108 | 150.85086 | 547 ft | 109 kts | 167° |
| 2026-05-08 00:41 | -33.69863 | 150.85232 | 479 ft | 110 kts | 172° |
| 2026-05-08 00:41 | -33.70594 | 150.85404 | 431 ft | 103 kts | 170° |
| 2026-05-08 00:41 | -33.71299 | 150.85329 | 409 ft | 97 kts | 188° |
| 2026-05-08 00:42 | -33.72007 | 150.85181 | 540 ft | 113 kts | 189° |
| 2026-05-08 00:42 | -33.72742 | 150.85007 | 915 ft | 95 kts | 194° |
| 2026-05-08 00:42 | -33.73442 | 150.84795 | 1067 ft | 109 kts | 201° |
| 2026-05-08 00:42 | -33.74148 | 150.84602 | 1437 ft | 97 kts | 194° |
| 2026-05-08 00:43 | -33.74247 | 150.84587 | 1453 ft | 100 kts | 195° |
| 2026-05-08 00:47 | -33.74766 | 150.84492 | 1424 ft | 117 kts | 197° |
| 2026-05-08 00:47 | -33.75569 | 150.84473 | 1668 ft | 111 kts | 179° |
| 2026-05-08 00:47 | -33.76290 | 150.84924 | 1713 ft | 131 kts | 152° |
| 2026-05-08 00:47 | -33.76985 | 150.85694 | 1647 ft | 135 kts | 144° |
| 2026-05-08 00:48 | -33.77627 | 150.86504 | 1584 ft | 136 kts | 142° |
| 2026-05-08 00:48 | -33.78332 | 150.87216 | 1416 ft | 125 kts | 152° |
| 2026-05-08 00:48 | -33.79049 | 150.87788 | 1227 ft | 123 kts | 148° |
| 2026-05-08 00:48 | -33.79764 | 150.88296 | 1233 ft | 117 kts | 158° |
| 2026-05-08 00:49 | -33.80494 | 150.88659 | 1310 ft | 113 kts | 170° |
| 2026-05-08 00:49 | -33.81251 | 150.89058 | 1276 ft | 124 kts | 160° |
| 2026-05-08 00:49 | -33.81811 | 150.89460 | 1370 ft | 124 kts | 156° |
| 2026-05-08 00:49 | -33.82537 | 150.89977 | 1532 ft | 117 kts | 155° |
| 2026-05-08 00:50 | -33.83153 | 150.90666 | 1666 ft | 128 kts | 130° |
| 2026-05-08 00:50 | -33.83736 | 150.91495 | 1621 ft | 128 kts | 155° |
| 2026-05-08 00:50 | -33.84543 | 150.91877 | 1626 ft | 127 kts | 167° |
| 2026-05-08 00:50 | -33.85343 | 150.92374 | 1516 ft | 126 kts | 156° |
| 2026-05-08 00:51 | -33.85987 | 150.93074 | 1437 ft | 128 kts | 142° |
| 2026-05-08 00:51 | -33.86600 | 150.93881 | 1233 ft | 131 kts | 135° |
| 2026-05-08 00:51 | -33.87054 | 150.94833 | 1118 ft | 132 kts | 123° |
| 2026-05-08 00:51 | -33.87705 | 150.95502 | 1043 ft | 120 kts | 156° |
| 2026-05-08 00:52 | -33.88449 | 150.95775 | 978 ft | 110 kts | 181° |
| 2026-05-08 00:52 | -33.89176 | 150.95706 | 997 ft | 103 kts | 188° |
| 2026-05-08 00:52 | -33.89915 | 150.95931 | 859 ft | 121 kts | 155° |
| 2026-05-08 00:52 | -33.90676 | 150.96476 | 499 ft | 134 kts | 147° |
| 2026-05-08 00:53 | -33.91296 | 150.97277 | 248 ft | 120 kts | 140° |
| 2026-05-08 00:53 | -33.91789 | 150.98117 | 206 ft | 123 kts | 125° |
| 2026-05-08 00:53 | -33.92258 | 150.98911 | 30 ft | 104 kts | 136° |
| 2026-05-08 00:53 | -33.92635 | 150.99459 | 32 ft | 66 kts | 146° |
| 2026-05-08 00:54 | -33.92876 | 150.99638 | 29 ft | 0 kts | 184° |